Latest Weather Observations for Dartmoor

IDV60801

Issued at 12:02 pm EDT Sunday 18 February 2018 (issued every 30 minutes, with the page automatically refreshed every 10 minutes)

About weather observations | Map of weather stations | Latest weather observations for VIC | Other Formats
Station Details ID: 090194 Name: DARTMOOR Lat: -37.92 Lon: 141.26 Height: 51.0 m
Data from the previous 72 hours. | See also: Recent months at Dartmoor
Date/Time
EDT
Temp
°C
App
Temp
°C
Dew
Point
°C
Rel
Hum
%
Delta-T
°C
Wind Press
QNH
hPa
Press
MSL
hPa
Rain since
9am
mm
Dir  Spd
km/h
Gust
km/h
Spd
kts
Gust
kts
18/12:00pm 19.9 19.5 13.1 65 3.9 SSE 7 13 4 7 1014.3 1014.2 0.0
18/11:30am 19.8 19.4 13.0 65 3.9 SE 7 9 4 5 1014.3 1014.2 0.0
18/11:00am 20.0 19.3 13.2 65 3.9 E 9 17 5 9 1014.0 1013.9 0.0
18/10:30am 18.8 18.3 13.9 73 2.8 E 9 13 5 7 1014.1 1014.0 0.0
18/10:00am 18.4 17.4 13.5 73 2.8 ESE 11 17 6 9 1013.7 1013.6 0.0
18/09:30am 18.2 17.3 13.7 75 2.6 ESE 11 17 6 9 1013.7 1013.6 0.0
18/09:00am 15.6 16.0 14.8 95 0.5 ESE 6 9 3 5 1012.9 1012.8 0.0
18/08:30am 14.1 14.6 13.9 99 0.1 SSE 4 6 2 3 1013.1 1013.0 0.0
18/08:00am 12.6 12.6 12.4 99 0.1 ESE 4 4 2 2 1012.6 1012.5 0.0
18/07:30am 11.3 10.9 11.1 99 0.1 E 4 6 2 3 1012.3 1012.2 0.0
18/07:00am 11.0 11.3 10.8 99 0.1 CALM 0 0 0 0 1012.2 1012.1 0.0
18/06:30am 11.0 11.3 10.8 99 0.1 CALM 0 0 0 0 1012.5 1012.4 0.0
18/06:00am 11.2 11.5 11.0 99 0.1 CALM 0 2 0 1 1012.0 1011.8 0.0
18/05:30am 10.8 10.6 10.6 99 0.1 S 2 4 1 2 1011.9 1011.7 0.0
18/05:00am 11.2 11.5 11.0 99 0.1 CALM 0 0 0 0 1011.5 1011.3 0.0
18/04:30am 11.3 11.6 11.0 98 0.2 CALM 0 0 0 0 1011.5 1011.3 0.0
18/04:00am 11.4 11.8 11.1 98 0.2 CALM 0 0 0 0 1011.9 1011.7 0.0
18/03:30am 11.7 12.1 11.2 97 0.3 CALM 0 0 0 0 1011.8 1011.6 0.0
18/03:00am 12.1 12.6 11.6 97 0.3 CALM 0 0 0 0 1012.0 1011.8 0.0
18/02:30am 12.4 13.0 11.9 97 0.3 CALM 0 0 0 0 1012.5 1012.4 0.0
18/02:00am 12.4 13.0 11.8 96 0.3 CALM 0 0 0 0 1013.0 1012.9 0.0
18/01:30am 12.6 13.2 12.0 96 0.3 CALM 0 0 0 0 1013.1 1013.0 0.0
18/01:00am 12.9 13.6 12.1 95 0.4 CALM 0 0 0 0 1013.0 1012.9 0.0
18/12:30am 13.3 13.7 12.4 94 0.5 ENE 2 4 1 2 1013.2 1013.1 0.0
18/12:00am 13.5 14.3 12.4 93 0.6 CALM 0 0 0 0 1013.4 1013.3 0.0
 
Date/Time
EDT
Temp
°C
App
Temp
°C
Dew
Point
°C
Rel
Hum
%
Delta-T
°C
Wind Press
QNH
hPa
Press
MSL
hPa
Rain since
9am
mm
Dir  Spd
km/h
Gust
km/h
Spd
kts
Gust
kts
17/11:30pm 13.9 14.6 12.3 90 0.9 CALM 0 0 0 0 1013.4 1013.3 0.0
17/11:00pm 14.6 15.5 12.8 89 1.0 CALM 0 0 0 0 1013.3 1013.2 0.0
17/10:30pm 15.2 16.2 13.1 87 1.2 CALM 0 2 0 1 1013.3 1013.2 0.0
17/10:00pm 15.9 16.1 13.2 84 1.5 SSW 4 6 2 3 1013.1 1013.0 0.0
17/09:30pm 16.6 15.9 13.1 80 2.0 SW 9 13 5 7 1013.1 1013.0 0.0
17/09:00pm 17.1 16.0 13.0 77 2.3 SW 11 15 6 8 1012.5 1012.4 0.0
17/08:30pm 17.9 16.8 13.0 73 2.8 SSW 11 15 6 8 1012.3 1012.2 0.0
17/08:00pm 18.7 17.8 12.7 68 3.4 SSW 9 17 5 9 1011.9 1011.7 0.0
17/07:30pm 19.3 17.9 12.1 63 4.0 SSW 11 17 6 9 1011.9 1011.7 0.0
17/07:00pm 20.0 16.9 11.5 58 4.7 SSW 19 24 10 13 1012.0 1011.8 0.0
17/06:30pm 21.3 18.9 11.3 53 5.5 SSW 15 22 8 12 1011.8 1011.6 0.0
17/06:00pm 22.3 19.9 11.4 50 6.1 SSW 15 24 8 13 1011.7 1011.5 0.0
17/05:30pm 22.4 19.2 11.2 49 6.2 SSW 19 26 10 14 1011.6 1011.4 0.0
17/05:00pm 22.4 19.1 11.5 50 6.1 SSW 20 32 11 17 1012.1 1011.9 0.0
17/04:30pm 23.1 19.4 11.5 48 6.5 SW 22 33 12 18 1012.2 1012.1 0.0
17/04:00pm 22.9 19.4 11.0 47 6.6 SSW 20 33 11 18 1012.3 1012.2 0.0
17/03:30pm 24.6 21.3 9.7 39 8.2 WSW 17 30 9 16 1012.4 1012.3 0.0
17/03:00pm 23.9 21.5 9.9 41 7.7 WSW 13 22 7 12 1012.6 1012.5 0.0
17/02:30pm 23.9 20.9 9.1 39 8.0 W 15 24 8 13 1013.3 1013.2 0.0
17/02:00pm 22.9 19.9 9.3 42 7.3 W 15 24 8 13 1013.3 1013.2 0.0
17/01:30pm 22.6 19.7 9.7 44 7.0 NW 15 28 8 15 1013.2 1013.1 0.0
17/01:00pm 21.7 19.2 9.6 46 6.5 WNW 13 26 7 14 1013.3 1013.2 0.0
17/12:30pm 20.9 18.7 9.5 48 6.1 W 11 28 6 15 1013.6 1013.5 0.0
17/12:00pm 19.4 16.9 9.6 53 5.2 W 13 22 7 12 1014.2 1014.1 0.0
17/11:30am 19.3 17.2 9.8 54 5.1 WNW 11 20 6 11 1014.3 1014.2 0.0
17/11:00am 18.3 16.1 9.4 56 4.7 WNW 11 22 6 12 1014.3 1014.2 0.0
17/10:30am 17.4 15.6 9.3 59 4.2 NNW 9 17 5 9 1014.5 1014.4 0.0
17/10:00am 16.3 14.7 10.2 67 3.2 N 9 15 5 8 1014.0 1013.9 0.0
17/09:30am 14.1 12.5 10.1 77 2.1 N 9 13 5 7 1014.1 1014.0 0.0
17/09:00am 11.3 10.2 9.9 91 0.7 N 6 9 3 5 1014.0 1013.9 0.0
17/08:30am 9.6 9.1 9.5 99 0.0 NE 2 4 1 2 1014.3 1014.2 0.0
17/08:00am 7.3 5.9 7.2 99 0.0 ENE 4 6 2 3 1014.2 1014.1 0.0
17/07:30am 6.8 5.3 6.7 99 0.0 ENE 4 6 2 3 1014.3 1014.2 0.0
17/07:00am 6.4 5.6 6.3 99 0.0 CALM 0 0 0 0 1014.0 1013.9 0.0
17/06:30am 6.1 5.2 6.0 99 0.0 CALM 0 0 0 0 1013.6 1013.5 0.0
17/06:00am 5.7 3.9 5.4 98 0.1 ENE 4 6 2 3 1012.7 1012.6 0.0
17/05:30am 5.7 4.3 5.4 98 0.1 ENE 2 4 1 2 1012.7 1012.6 0.0
17/05:00am 6.3 5.4 6.0 98 0.1 CALM 0 0 0 0 1012.8 1012.7 0.0
17/04:30am 6.5 4.9 6.2 98 0.1 NE 4 4 2 2 1013.1 1013.0 0.0
17/04:00am 6.5 5.2 6.2 98 0.1 NE 2 4 1 2 1013.4 1013.3 0.0
17/03:30am 6.9 6.1 6.5 97 0.2 CALM 0 0 0 0 1013.4 1013.3 0.0
17/03:00am 7.4 6.7 7.1 98 0.1 CALM 0 0 0 0 1013.8 1013.7 0.0
17/02:30am 7.5 6.8 7.1 97 0.2 CALM 0 2 0 1 1014.0 1013.9 0.0
17/02:00am 7.7 6.6 7.1 96 0.3 ENE 2 4 1 2 1014.1 1014.0 0.0
17/01:30am 8.1 7.5 7.3 95 0.4 CALM 0 0 0 0 1014.6 1014.5 0.0
17/01:00am 8.6 8.1 7.7 94 0.4 CALM 0 0 0 0 1014.7 1014.6 0.0
17/12:30am 9.1 8.6 8.0 93 0.5 CALM 0 0 0 0 1014.9 1014.8 0.0
17/12:00am 9.7 9.3 8.3 91 0.7 CALM 0 0 0 0 1015.1 1015.0 0.0
 
Date/Time
EDT
Temp
°C
App
Temp
°C
Dew
Point
°C
Rel
Hum
%
Delta-T
°C
Wind Press
QNH
hPa
Press
MSL
hPa
Rain since
9am
mm
Dir  Spd
km/h
Gust
km/h
Spd
kts
Gust
kts
16/11:30pm 10.3 10.0 8.6 89 0.8 CALM 0 4 0 2 1015.1 1015.0 0.0
16/11:00pm 11.2 10.9 8.8 85 1.2 CALM 0 0 0 0 1015.1 1015.0 0.0
16/10:30pm 11.7 11.4 8.7 82 1.5 CALM 0 0 0 0 1015.1 1015.0 0.0
16/10:00pm 13.1 11.7 9.0 76 2.1 WSW 6 7 3 4 1015.1 1015.0 0.0
16/09:30pm 13.5 12.5 9.0 74 2.3 WSW 4 6 2 3 1015.0 1014.9 0.0
16/09:00pm 14.0 12.6 8.8 71 2.6 SSW 6 7 3 4 1015.1 1015.0 0.0
16/08:30pm 15.2 13.6 8.9 66 3.2 SW 7 11 4 6 1014.9 1014.8 0.0
16/08:00pm 16.6 13.5 8.8 60 4.0 SW 15 22 8 12 1014.9 1014.8 0.0
16/07:30pm 17.8 14.8 9.2 57 4.5 SSW 15 22 8 12 1014.6 1014.5 0.0
16/07:00pm 18.4 14.9 8.9 54 5.0 SW 17 26 9 14 1014.4 1014.3 0.0
16/06:30pm 19.2 15.7 8.8 51 5.4 SW 17 24 9 13 1014.5 1014.4 0.0
16/06:00pm 19.9 16.1 9.2 50 5.7 SSW 19 26 10 14 1014.4 1014.3 0.0
16/05:30pm 20.6 17.7 9.5 49 5.9 SW 15 24 8 13 1014.4 1014.3 0.0
16/05:00pm 20.6 16.8 9.2 48 6.1 SSW 19 24 10 13 1014.4 1014.3 0.0
16/04:30pm 20.6 17.2 9.2 48 6.1 SSW 17 26 9 14 1014.4 1014.3 0.0
16/04:00pm 21.1 18.0 9.0 46 6.4 SSW 15 22 8 12 1014.6 1014.5 0.0
16/03:30pm 20.5 16.9 8.5 46 6.3 SSW 17 33 9 18 1014.7 1014.6 0.0
16/03:00pm 20.4 17.1 8.1 45 6.4 SSW 15 30 8 16 1015.1 1015.0 0.0
16/02:30pm 20.9 18.1 8.5 45 6.5 SW 13 22 7 12 1015.4 1015.3 0.0
16/02:00pm 20.1 16.1 8.1 46 6.2 SSW 19 24 10 13 1015.5 1015.4 0.0
16/01:30pm 20.4 17.2 8.4 46 6.3 SW 15 30 8 16 1015.7 1015.6 0.0
16/01:00pm 19.5 16.8 8.8 50 5.6 SW 13 22 7 12 1016.0 1015.9 0.0
16/12:30pm 18.5 15.3 8.5 52 5.2 WSW 15 24 8 13 1016.1 1016.0 0.0
16/12:00pm 18.8 16.0 8.7 52 5.3 SW 13 24 7 13 1016.4 1016.3 0.0
16/11:30am 18.0 15.2 10.1 60 4.2 SW 15 22 8 12 1016.6 1016.5 0.0
16/11:00am 17.4 15.0 10.1 62 3.9 WSW 13 20 7 11 1016.6 1016.5 0.0
16/10:30am 16.8 15.1 9.7 63 3.7 WSW 9 15 5 8 1016.4 1016.3 0.0
16/10:00am 16.0 14.5 10.7 71 2.8 W 9 15 5 8 1016.4 1016.3 0.0
16/09:30am 14.7 14.3 12.4 86 1.3 W 6 9 3 5 1016.1 1016.0 0.0
16/09:00am 13.3 12.6 11.5 89 1.0 WNW 6 7 3 4 1015.9 1015.8 2.6
16/08:30am 11.5 10.5 10.9 96 0.3 WNW 7 9 4 5 1015.5 1015.4 2.6
16/08:00am 10.7 9.2 10.5 99 0.1 WNW 9 11 5 6 1015.2 1015.1 2.6
16/07:30am 10.0 8.8 9.7 98 0.2 WNW 6 7 3 4 1015.0 1014.9 2.4
16/07:00am 10.3 9.0 10.0 98 0.2 WNW 7 9 4 5 1014.7 1014.6 2.4
16/06:30am 11.2 9.8 11.0 99 0.1 WNW 9 11 5 6 1014.4 1014.3 2.4
16/06:00am 11.3 10.0 11.1 99 0.1 NW 9 9 5 5 1013.9 1013.8 2.4
16/05:30am 11.9 11.2 11.9 100 0.0 NW 7 9 4 5 1014.1 1014.0 2.4
16/05:00am 12.0 10.9 12.0 100 0.0 NW 9 11 5 6 1014.1 1014.0 2.4
16/04:30am 12.6 11.7 12.6 100 0.0 WNW 9 11 5 6 1013.9 1013.8 2.4
16/04:00am 12.6 11.6 12.4 99 0.1 NW 9 9 5 5 1013.6 1013.5 2.4
16/03:30am 12.8 12.3 12.6 99 0.1 WNW 7 9 4 5 1013.6 1013.5 2.4
16/03:00am 13.4 13.1 13.2 99 0.1 WNW 7 9 4 5 1013.5 1013.4 2.4
16/02:30am 13.9 13.7 13.7 99 0.1 NW 7 9 4 5 1013.5 1013.4 2.4
16/02:00am 13.9 14.3 13.6 98 0.2 NW 4 7 2 4 1013.7 1013.6 2.2
16/01:30am 14.1 14.5 13.6 97 0.3 WNW 4 7 2 4 1014.0 1013.9 2.2
16/01:00am 14.4 14.5 13.9 97 0.3 NW 6 7 3 4 1014.1 1014.0 2.2
16/12:30am 14.8 14.8 14.2 96 0.3 W 7 11 4 6 1014.1 1014.0 2.2
16/12:00am 15.0 15.7 14.5 97 0.3 W 4 7 2 4 1014.0 1013.9 2.0
 
Date/Time
EDT
Temp
°C
App
Temp
°C
Dew
Point
°C
Rel
Hum
%
Delta-T
°C
Wind Press
QNH
hPa
Press
MSL
hPa
Rain since
9am
mm
Dir  Spd
km/h
Gust
km/h
Spd
kts
Gust
kts
15/11:30pm 15.0 14.7 14.5 97 0.3 WSW 9 15 5 8 1014.1 1014.0 2.0
15/11:00pm 15.1 15.8 14.5 96 0.3 W 4 7 2 4 1014.0 1013.9 1.4
15/10:30pm 15.3 15.1 14.7 96 0.3 W 9 19 5 10 1014.0 1013.9 1.2
15/10:00pm 15.5 15.8 14.4 93 0.6 WSW 6 11 3 6 1013.8 1013.7 1.2
15/09:30pm 15.9 15.6 13.4 85 1.4 WNW 7 11 4 6 1013.6 1013.5 0.0
15/09:00pm 16.4 16.4 13.5 83 1.6 W 6 9 3 5 1013.4 1013.3 0.0
15/08:30pm 17.0 16.1 13.7 81 1.9 WSW 11 19 6 10 1013.6 1013.5 0.0
15/08:00pm 17.5 16.6 13.8 79 2.1 SW 11 19 6 10 1013.4 1013.3 0.0
15/07:30pm 17.9 16.4 14.2 79 2.1 WNW 15 20 8 11 1013.2 1013.1 0.0
15/07:00pm 18.2 17.0 13.9 76 2.5 W 13 22 7 12 1013.1 1013.0 0.0
15/06:30pm 17.9 17.2 14.4 80 2.0 WNW 11 20 6 11 1013.0 1012.9 0.0
15/06:00pm 17.5 16.1 14.6 83 1.7 WNW 15 26 8 14 1013.2 1013.1 0.0
15/05:30pm 16.9 15.1 15.4 91 0.9 W 19 28 10 15 1013.4 1013.3 0.0
15/05:00pm 17.8 16.5 14.7 82 1.8 WSW 15 26 8 14 1013.1 1013.0 0.0
15/04:30pm 17.3 14.6 14.6 84 1.6 WSW 22 33 12 18 1013.5 1013.4 0.0
15/04:00pm 20.2 17.2 12.7 62 4.2 W 20 28 11 15 1013.3 1013.2 0.0
15/03:30pm 19.0 16.2 13.2 69 3.3 WNW 20 35 11 19 1013.8 1013.7 0.0
15/03:00pm 17.7 14.6 13.4 76 2.4 W 22 43 12 23 1014.2 1014.1 0.0
15/02:30pm 19.9 16.6 11.7 59 4.5 WNW 20 35 11 19 1013.8 1013.7 0.0
15/02:00pm 19.3 16.3 12.6 65 3.8 NW 20 32 11 17 1014.0 1013.9 0.0
15/01:30pm 15.8 14.0 13.3 85 1.4 WNW 15 28 8 15 1014.4 1014.3 0.0
15/01:00pm 17.9 15.9 12.6 71 3.0 W 15 26 8 14 1014.3 1014.2 0.0
15/12:30pm 18.3 15.3 11.8 66 3.6 W 19 28 10 15 1014.5 1014.4 0.0

Other Formats:

Comma delimited format used in spreadsheet applications
http://www.bom.gov.au/fwo/IDV60801/IDV60801.95822.axf

JavaScript Object Notation format (JSON) in row-major order
http://www.bom.gov.au/fwo/IDV60801/IDV60801.95822.json